sensor_id;sensor_type;location;lat;lon;timestamp;P1;durP1;ratioP1;P2;durP2;ratioP2
55527;SDS011;52818;43.308;21.916;2022-09-27T12:36:31;6.00;;;4.80;;
55527;SDS011;52818;43.308;21.916;2022-09-27T12:38:32;7.30;;;4.20;;
55527;SDS011;52818;43.308;21.916;2022-09-27T12:40:30;4.70;;;4.10;;
55527;SDS011;52818;43.308;21.916;2022-09-27T12:42:30;4.60;;;4.00;;
55527;SDS011;52818;43.308;21.916;2022-09-27T12:44:32;5.20;;;4.40;;
55527;SDS011;52818;43.308;21.916;2022-09-27T12:46:32;4.40;;;3.60;;
55527;SDS011;52818;43.308;21.916;2022-09-27T12:48:32;3.70;;;3.40;;
55527;SDS011;52818;43.308;21.916;2022-09-27T12:50:32;3.80;;;;;
55527;SDS011;52818;43.308;21.916;2022-09-27T12:52:30;4.20;;;;;
55527;SDS011;52818;43.308;21.916;2022-09-27T12:54:35;3.50;;;3.20;;
55527;SDS011;52818;43.308;21.916;2022-09-27T12:56:33;3.40;;;3.10;;
55527;SDS011;52818;43.308;21.916;2022-09-27T12:58:35;3.30;;;2.90;;
55527;SDS011;52818;43.308;21.916;2022-09-27T13:00:30;3.10;;;2.80;;
55527;SDS011;52818;43.308;21.916;2022-09-27T13:04:36;3.00;;;2.60;;
55527;SDS011;52818;43.308;21.916;2022-09-27T13:06:33;2.90;;;2.50;;
55527;SDS011;52818;43.308;21.916;2022-09-27T13:08:35;2.50;;;2.30;;
55527;SDS011;52818;43.308;21.916;2022-09-27T13:12:31;2.40;;;2.20;;
55527;SDS011;52818;43.308;21.916;2022-09-27T13:14:31;2.30;;;2.10;;
55527;SDS011;52818;43.308;21.916;2022-09-27T13:16:40;6.80;;;2.60;;
55527;SDS011;52818;43.308;21.916;2022-09-27T13:18:47;2.60;;;2.20;;
55527;SDS011;52818;43.308;21.916;2022-09-27T13:20:43;2.50;;;2.30;;
55527;SDS011;52818;43.308;21.916;2022-09-27T13:22:35;2.30;;;2.00;;
55527;SDS011;52818;43.308;21.916;2022-09-27T13:24:40;;;;2.10;;
55527;SDS011;52818;43.308;21.916;2022-09-27T13:26:47;2.40;;;2.00;;
55527;SDS011;52818;43.308;21.916;2022-09-27T13:28:32;2.30;;;;;
55527;SDS011;52818;43.308;21.916;2022-09-27T13:31:02;3.10;;;2.10;;
55527;SDS011;52818;43.308;21.916;2022-09-27T13:34:11;2.40;;;;;
55527;SDS011;52818;43.308;21.916;2022-09-27T13:35:10;2.30;;;;;
55527;SDS011;52818;43.308;21.916;2022-09-27T13:37:20;2.10;;;1.90;;
55527;SDS011;52818;43.308;21.916;2022-09-27T13:39:18;2.80;;;2.00;;
55527;SDS011;52818;43.308;21.916;2022-09-27T13:41:18;2.90;;;2.30;;
55527;SDS011;52818;43.308;21.916;2022-09-27T13:44:07;2.50;;;2.10;;
55527;SDS011;52818;43.308;21.916;2022-09-27T13:45:13;2.20;;;2.00;;
55527;SDS011;52818;43.308;21.916;2022-09-27T13:47:03;2.30;;;2.10;;
55527;SDS011;52818;43.308;21.916;2022-09-27T13:49:03;3.20;;;2.30;;
55527;SDS011;52818;43.308;21.916;2022-09-27T13:51:03;2.70;;;2.10;;
55527;SDS011;52818;43.308;21.916;2022-09-27T13:53:03;2.10;;;1.90;;
55527;SDS011;52818;43.308;21.916;2022-09-27T13:55:05;2.30;;;2.00;;
55527;SDS011;52818;43.308;21.916;2022-09-27T13:57:03;3.40;;;2.10;;
55527;SDS011;52818;43.308;21.916;2022-09-27T13:59:03;2.40;;;2.20;;
55527;SDS011;52818;43.308;21.916;2022-09-27T14:01:04;2.80;;;;;
55527;SDS011;52818;43.308;21.916;2022-09-27T14:03:05;3.20;;;2.60;;
55527;SDS011;52818;43.308;21.916;2022-09-27T14:05:05;4.70;;;3.00;;
55527;SDS011;52818;43.308;21.916;2022-09-27T14:07:04;4.30;;;2.80;;
55527;SDS011;52818;43.308;21.916;2022-09-27T14:09:04;3.20;;;2.50;;
55527;SDS011;52818;43.308;21.916;2022-09-27T14:11:10;5.30;;;2.00;;
55527;SDS011;52818;43.308;21.916;2022-09-27T14:13:04;3.10;;;;;
55527;SDS011;52818;43.308;21.916;2022-09-27T14:15:04;2.80;;;2.20;;
55527;SDS011;52818;43.308;21.916;2022-09-27T14:17:05;3.60;;;2.10;;
55527;SDS011;52818;43.308;21.916;2022-09-27T14:19:05;5.50;;;3.40;;
55527;SDS011;52818;43.308;21.916;2022-09-27T14:21:08;9.50;;;4.30;;
55527;SDS011;52818;43.308;21.916;2022-09-27T14:23:04;6.40;;;3.40;;
55527;SDS011;52818;43.308;21.916;2022-09-27T14:25:12;4.00;;;2.70;;
55527;SDS011;52818;43.308;21.916;2022-09-27T14:27:08;6.00;;;3.20;;
55527;SDS011;52818;43.308;21.916;2022-09-27T14:29:14;;;;3.30;;
55527;SDS011;52818;43.308;21.916;2022-09-27T14:31:06;4.50;;;2.70;;
55527;SDS011;52818;43.308;21.916;2022-09-27T14:33:23;3.00;;;2.20;;
55527;SDS011;52818;43.308;21.916;2022-09-27T14:35:07;8.30;;;4.50;;
55527;SDS011;52818;43.308;21.916;2022-09-27T14:37:11;7.10;;;4.10;;
55527;SDS011;52818;43.308;21.916;2022-09-27T14:39:11;2.80;;;2.00;;
55527;SDS011;52818;43.308;21.916;2022-09-27T14:41:06;2.50;;;1.40;;
55527;SDS011;52818;43.308;21.916;2022-09-27T14:43:05;;;;1.60;;
55527;SDS011;52818;43.308;21.916;2022-09-27T14:45:12;2.00;;;1.20;;
55527;SDS011;52818;43.308;21.916;2022-09-27T14:47:06;2.50;;;1.40;;
55527;SDS011;52818;43.308;21.916;2022-09-27T14:49:10;1.40;;;1.20;;
55527;SDS011;52818;43.308;21.916;2022-09-27T14:51:15;3.30;;;1.10;;
55527;SDS011;52818;43.308;21.916;2022-09-27T14:53:18;2.60;;;;;
55527;SDS011;52818;43.308;21.916;2022-09-27T14:55:07;2.20;;;1.20;;
55527;SDS011;52818;43.308;21.916;2022-09-27T14:57:06;3.00;;;1.50;;
55527;SDS011;52818;43.308;21.916;2022-09-27T14:59:08;3.50;;;1.40;;
55527;SDS011;52818;43.308;21.916;2022-09-27T15:01:11;2.40;;;1.50;;
55527;SDS011;52818;43.308;21.916;2022-09-27T15:03:06;3.00;;;;;
55527;SDS011;52818;43.308;21.916;2022-09-27T15:05:10;2.40;;;1.30;;
55527;SDS011;52818;43.308;21.916;2022-09-27T15:07:06;2.90;;;1.40;;
55527;SDS011;52818;43.308;21.916;2022-09-27T15:09:06;1.60;;;1.00;;
55527;SDS011;52818;43.308;21.916;2022-09-27T15:11:07;3.20;;;1.20;;
55527;SDS011;52818;43.308;21.916;2022-09-27T15:13:10;1.90;;;;;
55527;SDS011;52818;43.308;21.916;2022-09-27T15:15:10;2.00;;;;;
55527;SDS011;52818;43.308;21.916;2022-09-27T15:17:12;2.10;;;;;
55527;SDS011;52818;43.308;21.916;2022-09-27T15:19:12;4.80;;;1.10;;
55527;SDS011;52818;43.308;21.916;2022-09-27T15:21:08;4.20;;;1.40;;
55527;SDS011;52818;43.308;21.916;2022-09-27T15:23:25;2.40;;;1.30;;
55527;SDS011;52818;43.308;21.916;2022-09-27T15:25:14;3.90;;;1.50;;
55527;SDS011;52818;43.308;21.916;2022-09-27T15:27:15;4.80;;;2.10;;
55527;SDS011;52818;43.308;21.916;2022-09-27T15:29:15;4.10;;;;;
55527;SDS011;52818;43.308;21.916;2022-09-27T15:31:37;4.90;;;2.60;;
55527;SDS011;52818;43.308;21.916;2022-09-27T15:33:38;5.90;;;3.30;;
55527;SDS011;52818;43.308;21.916;2022-09-27T15:35:38;6.00;;;3.50;;
55527;SDS011;52818;43.308;21.916;2022-09-27T15:37:38;7.50;;;4.30;;
55527;SDS011;52818;43.308;21.916;2022-09-27T15:39:39;10.70;;;5.70;;
55527;SDS011;52818;43.308;21.916;2022-09-27T15:41:59;10.30;;;5.20;;
55527;SDS011;52818;43.308;21.916;2022-09-27T15:43:39;8.90;;;;;
55527;SDS011;52818;43.308;21.916;2022-09-27T15:45:39;10.20;;;5.10;;
55527;SDS011;52818;43.308;21.916;2022-09-27T15:47:39;8.90;;;4.30;;
55527;SDS011;52818;43.308;21.916;2022-09-27T15:49:39;7.30;;;4.00;;
55527;SDS011;52818;43.308;21.916;2022-09-27T15:51:39;5.20;;;3.10;;
55527;SDS011;52818;43.308;21.916;2022-09-27T15:53:41;6.00;;;;;
55527;SDS011;52818;43.308;21.916;2022-09-27T15:55:39;5.40;;;3.20;;
55527;SDS011;52818;43.308;21.916;2022-09-27T15:57:40;6.40;;;3.40;;
55527;SDS011;52818;43.308;21.916;2022-09-27T15:59:39;5.40;;;2.30;;
55527;SDS011;52818;43.308;21.916;2022-09-27T16:01:39;5.90;;;3.10;;
55527;SDS011;52818;43.308;21.916;2022-09-27T16:03:39;4.80;;;1.60;;
55527;SDS011;52818;43.308;21.916;2022-09-27T16:05:39;2.20;;;1.50;;
55527;SDS011;52818;43.308;21.916;2022-09-27T16:07:39;3.40;;;1.60;;
55527;SDS011;52818;43.308;21.916;2022-09-27T16:09:40;2.60;;;1.40;;
55527;SDS011;52818;43.308;21.916;2022-09-27T16:11:40;2.30;;;1.30;;
55527;SDS011;52818;43.308;21.916;2022-09-27T16:13:40;2.60;;;;;
55527;SDS011;52818;43.308;21.916;2022-09-27T16:15:40;4.30;;;;;
55527;SDS011;52818;43.308;21.916;2022-09-27T16:17:40;3.20;;;1.40;;
55527;SDS011;52818;43.308;21.916;2022-09-27T16:19:40;2.70;;;;;
55527;SDS011;52818;43.308;21.916;2022-09-27T16:21:40;2.60;;;;;
55527;SDS011;52818;43.308;21.916;2022-09-27T16:23:40;2.70;;;;;
55527;SDS011;52818;43.308;21.916;2022-09-27T16:25:40;2.40;;;;;
55527;SDS011;52818;43.308;21.916;2022-09-27T16:27:41;3.50;;;;;
55527;SDS011;52818;43.308;21.916;2022-09-27T16:29:41;2.70;;;1.50;;
55527;SDS011;52818;43.308;21.916;2022-09-27T16:31:41;2.50;;;1.60;;
55527;SDS011;52818;43.308;21.916;2022-09-27T16:33:41;3.40;;;1.80;;
55527;SDS011;52818;43.308;21.916;2022-09-27T16:35:41;4.20;;;2.20;;
55527;SDS011;52818;43.308;21.916;2022-09-27T16:37:41;4.60;;;2.10;;
55527;SDS011;52818;43.308;21.916;2022-09-27T16:39:41;4.00;;;2.20;;
55527;SDS011;52818;43.308;21.916;2022-09-27T16:41:41;5.70;;;3.10;;
55527;SDS011;52818;43.308;21.916;2022-09-27T16:43:41;5.20;;;3.40;;
55527;SDS011;52818;43.308;21.916;2022-09-27T16:45:41;6.60;;;3.10;;
55527;SDS011;52818;43.308;21.916;2022-09-27T16:47:42;7.00;;;3.40;;
55527;SDS011;52818;43.308;21.916;2022-09-27T16:49:42;4.90;;;2.70;;
55527;SDS011;52818;43.308;21.916;2022-09-27T16:51:42;4.60;;;2.80;;
55527;SDS011;52818;43.308;21.916;2022-09-27T16:53:42;5.00;;;2.90;;
55527;SDS011;52818;43.308;21.916;2022-09-27T16:55:42;4.00;;;2.40;;
55527;SDS011;52818;43.308;21.916;2022-09-27T16:57:42;5.80;;;3.30;;
55527;SDS011;52818;43.308;21.916;2022-09-27T16:59:42;3.90;;;2.70;;
55527;SDS011;52818;43.308;21.916;2022-09-27T17:01:42;5.60;;;3.10;;
55527;SDS011;52818;43.308;21.916;2022-09-27T17:03:42;5.20;;;3.00;;
55527;SDS011;52818;43.308;21.916;2022-09-27T17:05:42;5.30;;;2.80;;
55527;SDS011;52818;43.308;21.916;2022-09-27T17:07:42;6.70;;;3.10;;
55527;SDS011;52818;43.308;21.916;2022-09-27T17:09:43;5.50;;;2.60;;
55527;SDS011;52818;43.308;21.916;2022-09-27T17:11:43;5.40;;;2.80;;
55527;SDS011;52818;43.308;21.916;2022-09-27T17:13:43;6.20;;;3.00;;
55527;SDS011;52818;43.308;21.916;2022-09-27T17:15:43;4.30;;;2.70;;
55527;SDS011;52818;43.308;21.916;2022-09-27T17:17:43;18.00;;;9.60;;
55527;SDS011;52818;43.308;21.916;2022-09-27T17:19:43;10.90;;;6.60;;
55527;SDS011;52818;43.308;21.916;2022-09-27T17:21:43;9.90;;;6.10;;
55527;SDS011;52818;43.308;21.916;2022-09-27T17:23:43;11.60;;;7.30;;
55527;SDS011;52818;43.308;21.916;2022-09-27T17:25:43;16.30;;;8.80;;
55527;SDS011;52818;43.308;21.916;2022-09-27T17:27:43;13.80;;;8.60;;
55527;SDS011;52818;43.308;21.916;2022-09-27T17:29:43;17.60;;;8.40;;
55527;SDS011;52818;43.308;21.916;2022-09-27T17:31:43;11.30;;;6.90;;
55527;SDS011;52818;43.308;21.916;2022-09-27T17:33:44;13.00;;;8.10;;
55527;SDS011;52818;43.308;21.916;2022-09-27T17:35:44;11.70;;;7.90;;
55527;SDS011;52818;43.308;21.916;2022-09-27T17:37:44;10.70;;;7.40;;
55527;SDS011;52818;43.308;21.916;2022-09-27T17:39:44;21.20;;;13.80;;
55527;SDS011;52818;43.308;21.916;2022-09-27T17:42:14;28.60;;;18.80;;
55527;SDS011;52818;43.308;21.916;2022-09-27T17:44:15;36.30;;;24.70;;
55527;SDS011;52818;43.308;21.916;2022-09-27T17:46:15;16.10;;;10.20;;
55527;SDS011;52818;43.308;21.916;2022-09-27T17:48:14;7.40;;;5.00;;
55527;SDS011;52818;43.308;21.916;2022-09-27T17:50:15;18.80;;;12.40;;
55527;SDS011;52818;43.308;21.916;2022-09-27T17:52:15;15.20;;;9.80;;
55527;SDS011;52818;43.308;21.916;2022-09-27T17:54:15;5.00;;;3.20;;
55527;SDS011;52818;43.308;21.916;2022-09-27T17:56:15;6.00;;;4.00;;
55527;SDS011;52818;43.308;21.916;2022-09-27T17:58:15;7.60;;;5.00;;
55527;SDS011;52818;43.308;21.916;2022-09-27T18:00:15;14.30;;;10.70;;
55527;SDS011;52818;43.308;21.916;2022-09-27T18:02:15;15.50;;;10.00;;
55527;SDS011;52818;43.308;21.916;2022-09-27T18:04:16;7.20;;;5.60;;
55527;SDS011;52818;43.308;21.916;2022-09-27T18:06:15;8.40;;;4.70;;
55527;SDS011;52818;43.308;21.916;2022-09-27T18:08:16;5.10;;;3.40;;
55527;SDS011;52818;43.308;21.916;2022-09-27T18:10:16;7.40;;;5.50;;
55527;SDS011;52818;43.308;21.916;2022-09-27T18:12:16;8.20;;;5.20;;
55527;SDS011;52818;43.308;21.916;2022-09-27T18:14:16;7.20;;;4.90;;
55527;SDS011;52818;43.308;21.916;2022-09-27T18:16:16;10.30;;;4.50;;
55527;SDS011;52818;43.308;21.916;2022-09-27T18:18:16;8.40;;;3.90;;
55527;SDS011;52818;43.308;21.916;2022-09-27T18:20:16;6.70;;;3.60;;
55527;SDS011;52818;43.308;21.916;2022-09-27T18:22:16;6.60;;;4.40;;
55527;SDS011;52818;43.308;21.916;2022-09-27T18:24:16;6.50;;;4.80;;
55527;SDS011;52818;43.308;21.916;2022-09-27T18:26:16;7.40;;;4.00;;
55527;SDS011;52818;43.308;21.916;2022-09-27T18:28:17;6.20;;;3.40;;
55527;SDS011;52818;43.308;21.916;2022-09-27T18:30:17;6.90;;;2.80;;
55527;SDS011;52818;43.308;21.916;2022-09-27T18:32:17;3.70;;;;;
55527;SDS011;52818;43.308;21.916;2022-09-27T18:34:17;8.30;;;3.20;;
55527;SDS011;52818;43.308;21.916;2022-09-27T18:36:17;6.60;;;3.00;;
55527;SDS011;52818;43.308;21.916;2022-09-27T18:38:17;6.70;;;;;
55527;SDS011;52818;43.308;21.916;2022-09-27T18:40:17;5.00;;;2.50;;
55527;SDS011;52818;43.308;21.916;2022-09-27T18:42:17;7.60;;;2.80;;
55527;SDS011;52818;43.308;21.916;2022-09-27T18:44:17;6.30;;;3.00;;
55527;SDS011;52818;43.308;21.916;2022-09-27T18:46:18;6.00;;;3.10;;
55527;SDS011;52818;43.308;21.916;2022-09-27T18:48:18;4.20;;;2.50;;
55527;SDS011;52818;43.308;21.916;2022-09-27T18:50:18;4.00;;;2.40;;
55527;SDS011;52818;43.308;21.916;2022-09-27T18:52:18;5.50;;;2.90;;
55527;SDS011;52818;43.308;21.916;2022-09-27T18:54:19;5.80;;;3.80;;
55527;SDS011;52818;43.308;21.916;2022-09-27T18:56:18;5.70;;;;;
55527;SDS011;52818;43.308;21.916;2022-09-27T18:58:18;7.90;;;4.00;;
55527;SDS011;52818;43.308;21.916;2022-09-27T19:00:18;6.80;;;4.50;;
55527;SDS011;52818;43.308;21.916;2022-09-27T19:02:18;9.10;;;4.30;;
55527;SDS011;52818;43.308;21.916;2022-09-27T19:04:19;9.20;;;4.60;;
55527;SDS011;52818;43.308;21.916;2022-09-27T19:06:19;;;;4.70;;
55527;SDS011;52818;43.308;21.916;2022-09-27T19:08:19;9.60;;;5.10;;
55527;SDS011;52818;43.308;21.916;2022-09-27T19:10:19;10.90;;;5.00;;
55527;SDS011;52818;43.308;21.916;2022-09-27T19:12:19;10.60;;;5.40;;
55527;SDS011;52818;43.308;21.916;2022-09-27T19:14:19;8.80;;;5.00;;
55527;SDS011;52818;43.308;21.916;2022-09-27T19:16:19;10.90;;;5.10;;
55527;SDS011;52818;43.308;21.916;2022-09-27T19:18:19;;;;5.80;;
55527;SDS011;52818;43.308;21.916;2022-09-27T19:20:19;7.90;;;4.00;;
55527;SDS011;52818;43.308;21.916;2022-09-27T19:22:19;5.80;;;3.70;;
55527;SDS011;52818;43.308;21.916;2022-09-27T19:24:19;4.20;;;2.80;;
55527;SDS011;52818;43.308;21.916;2022-09-27T19:26:20;4.70;;;2.90;;
55527;SDS011;52818;43.308;21.916;2022-09-27T19:28:20;5.10;;;;;
55527;SDS011;52818;43.308;21.916;2022-09-27T19:30:20;5.90;;;2.80;;
55527;SDS011;52818;43.308;21.916;2022-09-27T19:32:20;5.00;;;2.60;;
55527;SDS011;52818;43.308;21.916;2022-09-27T19:34:20;4.70;;;2.80;;
55527;SDS011;52818;43.308;21.916;2022-09-27T19:36:20;4.10;;;3.00;;
55527;SDS011;52818;43.308;21.916;2022-09-27T19:38:20;5.70;;;3.20;;
55527;SDS011;52818;43.308;21.916;2022-09-27T19:40:20;8.50;;;;;
55527;SDS011;52818;43.308;21.916;2022-09-27T19:42:20;5.20;;;2.90;;
55527;SDS011;52818;43.308;21.916;2022-09-27T19:44:20;3.50;;;2.60;;
55527;SDS011;52818;43.308;21.916;2022-09-27T19:46:21;6.10;;;3.10;;
55527;SDS011;52818;43.308;21.916;2022-09-27T19:48:20;4.50;;;2.70;;
55527;SDS011;52818;43.308;21.916;2022-09-27T19:50:21;6.90;;;3.20;;
55527;SDS011;52818;43.308;21.916;2022-09-27T19:52:21;10.40;;;4.70;;
55527;SDS011;52818;43.308;21.916;2022-09-27T19:54:21;9.50;;;7.20;;
55527;SDS011;52818;43.308;21.916;2022-09-27T19:56:21;8.50;;;5.30;;
55527;SDS011;52818;43.308;21.916;2022-09-27T19:58:21;7.70;;;5.10;;
55527;SDS011;52818;43.308;21.916;2022-09-27T20:00:21;9.50;;;6.00;;
55527;SDS011;52818;43.308;21.916;2022-09-27T20:02:21;10.30;;;;;
55527;SDS011;52818;43.308;21.916;2022-09-27T20:04:21;11.00;;;6.10;;
55527;SDS011;52818;43.308;21.916;2022-09-27T20:06:21;8.90;;;5.80;;
55527;SDS011;52818;43.308;21.916;2022-09-27T20:08:21;7.70;;;;;
55527;SDS011;52818;43.308;21.916;2022-09-27T20:10:21;10.50;;;5.70;;
55527;SDS011;52818;43.308;21.916;2022-09-27T20:12:22;10.90;;;5.50;;
55527;SDS011;52818;43.308;21.916;2022-09-27T20:14:22;10.70;;;6.30;;
55527;SDS011;52818;43.308;21.916;2022-09-27T20:16:22;8.60;;;6.10;;
55527;SDS011;52818;43.308;21.916;2022-09-27T20:18:22;10.90;;;6.20;;
55527;SDS011;52818;43.308;21.916;2022-09-27T20:20:22;10.40;;;7.00;;
55527;SDS011;52818;43.308;21.916;2022-09-27T20:22:22;10.80;;;7.20;;
55527;SDS011;52818;43.308;21.916;2022-09-27T20:24:52;12.00;;;7.60;;
55527;SDS011;52818;43.308;21.916;2022-09-27T20:26:52;11.30;;;7.00;;
55527;SDS011;52818;43.308;21.916;2022-09-27T20:28:53;10.70;;;7.20;;
55527;SDS011;52818;43.308;21.916;2022-09-27T20:30:54;12.70;;;7.30;;
55527;SDS011;52818;43.308;21.916;2022-09-27T20:32:53;13.40;;;7.40;;
55527;SDS011;52818;43.308;21.916;2022-09-27T20:34:53;11.60;;;;;
55527;SDS011;52818;43.308;21.916;2022-09-27T20:36:53;12.40;;;;;
55527;SDS011;52818;43.308;21.916;2022-09-27T20:38:54;11.00;;;7.10;;
55527;SDS011;52818;43.308;21.916;2022-09-27T20:40:53;10.30;;;6.90;;
55527;SDS011;52818;43.308;21.916;2022-09-27T20:42:53;11.60;;;7.00;;
55527;SDS011;52818;43.308;21.916;2022-09-27T20:44:53;11.40;;;6.10;;
55527;SDS011;52818;43.308;21.916;2022-09-27T20:46:53;10.40;;;5.50;;
55527;SDS011;52818;43.308;21.916;2022-09-27T20:48:54;10.70;;;5.00;;
55527;SDS011;52818;43.308;21.916;2022-09-27T20:50:54;7.60;;;4.80;;
55527;SDS011;52818;43.308;21.916;2022-09-27T20:52:54;6.10;;;3.80;;
55527;SDS011;52818;43.308;21.916;2022-09-27T20:54:54;8.70;;;4.20;;
55527;SDS011;52818;43.308;21.916;2022-09-27T20:56:54;6.80;;;3.80;;
55527;SDS011;52818;43.308;21.916;2022-09-27T20:58:54;6.30;;;3.40;;
55527;SDS011;52818;43.308;21.916;2022-09-27T21:00:54;5.60;;;3.30;;
55527;SDS011;52818;43.308;21.916;2022-09-27T21:02:54;6.30;;;;;
55527;SDS011;52818;43.308;21.916;2022-09-27T21:04:54;9.10;;;4.50;;
55527;SDS011;52818;43.308;21.916;2022-09-27T21:06:54;10.60;;;5.00;;
55527;SDS011;52818;43.308;21.916;2022-09-27T21:08:55;;;;4.90;;
55527;SDS011;52818;43.308;21.916;2022-09-27T21:11:01;12.00;;;5.40;;
55527;SDS011;52818;43.308;21.916;2022-09-27T21:12:56;7.40;;;4.40;;
55527;SDS011;52818;43.308;21.916;2022-09-27T21:14:55;8.00;;;3.60;;
55527;SDS011;52818;43.308;21.916;2022-09-27T21:16:55;6.90;;;3.20;;
55527;SDS011;52818;43.308;21.916;2022-09-27T21:18:55;4.90;;;3.00;;
55527;SDS011;52818;43.308;21.916;2022-09-27T21:20:56;5.30;;;2.90;;
55527;SDS011;52818;43.308;21.916;2022-09-27T21:22:55;4.50;;;2.40;;
55527;SDS011;52818;43.308;21.916;2022-09-27T21:24:55;3.80;;;2.30;;
55527;SDS011;52818;43.308;21.916;2022-09-27T21:26:56;5.00;;;2.20;;
55527;SDS011;52818;43.308;21.916;2022-09-27T21:28:56;3.50;;;2.30;;
55527;SDS011;52818;43.308;21.916;2022-09-27T21:30:56;5.90;;;;;
55527;SDS011;52818;43.308;21.916;2022-09-27T21:32:56;4.40;;;2.40;;
55527;SDS011;52818;43.308;21.916;2022-09-27T21:34:56;4.80;;;2.20;;
55527;SDS011;52818;43.308;21.916;2022-09-27T21:36:56;3.30;;;2.00;;
55527;SDS011;52818;43.308;21.916;2022-09-27T21:38:56;5.50;;;2.50;;
55527;SDS011;52818;43.308;21.916;2022-09-27T21:40:57;5.40;;;2.20;;
55527;SDS011;52818;43.308;21.916;2022-09-27T21:42:57;4.50;;;2.00;;
55527;SDS011;52818;43.308;21.916;2022-09-27T21:44:56;6.00;;;2.20;;
55527;SDS011;52818;43.308;21.916;2022-09-27T21:46:57;5.20;;;2.50;;
55527;SDS011;52818;43.308;21.916;2022-09-27T21:48:57;7.00;;;2.30;;
55527;SDS011;52818;43.308;21.916;2022-09-27T21:51:01;6.70;;;2.50;;
55527;SDS011;52818;43.308;21.916;2022-09-27T21:52:57;4.90;;;2.30;;
55527;SDS011;52818;43.308;21.916;2022-09-27T21:54:57;5.80;;;2.10;;
55527;SDS011;52818;43.308;21.916;2022-09-27T21:56:57;4.00;;;2.80;;
55527;SDS011;52818;43.308;21.916;2022-09-27T21:58:58;6.50;;;3.00;;
55527;SDS011;52818;43.308;21.916;2022-09-27T22:00:57;4.30;;;2.70;;
55527;SDS011;52818;43.308;21.916;2022-09-27T22:02:57;6.30;;;2.90;;
55527;SDS011;52818;43.308;21.916;2022-09-27T22:04:58;6.20;;;2.70;;
55527;SDS011;52818;43.308;21.916;2022-09-27T22:06:58;7.90;;;3.00;;
55527;SDS011;52818;43.308;21.916;2022-09-27T22:08:58;4.50;;;2.50;;
55527;SDS011;52818;43.308;21.916;2022-09-27T22:10:58;7.20;;;3.10;;
55527;SDS011;52818;43.308;21.916;2022-09-27T22:12:58;6.00;;;;;
55527;SDS011;52818;43.308;21.916;2022-09-27T22:14:58;7.00;;;3.50;;
55527;SDS011;52818;43.308;21.916;2022-09-27T22:16:58;4.90;;;3.30;;
55527;SDS011;52818;43.308;21.916;2022-09-27T22:18:58;5.10;;;2.90;;
55527;SDS011;52818;43.308;21.916;2022-09-27T22:20:59;4.90;;;;;
55527;SDS011;52818;43.308;21.916;2022-09-27T22:22:58;5.90;;;3.00;;
55527;SDS011;52818;43.308;21.916;2022-09-27T22:24:59;6.00;;;3.30;;
55527;SDS011;52818;43.308;21.916;2022-09-27T22:26:59;4.70;;;3.00;;
55527;SDS011;52818;43.308;21.916;2022-09-27T22:28:59;5.50;;;;;
55527;SDS011;52818;43.308;21.916;2022-09-27T22:31:02;6.70;;;3.40;;
55527;SDS011;52818;43.308;21.916;2022-09-27T22:33:00;6.50;;;3.50;;
55527;SDS011;52818;43.308;21.916;2022-09-27T22:34:59;6.00;;;3.00;;
55527;SDS011;52818;43.308;21.916;2022-09-27T22:36:59;5.90;;;3.20;;
55527;SDS011;52818;43.308;21.916;2022-09-27T22:38:59;5.60;;;3.30;;
55527;SDS011;52818;43.308;21.916;2022-09-27T22:41:00;4.80;;;2.60;;
55527;SDS011;52818;43.308;21.916;2022-09-27T22:42:59;5.50;;;2.50;;
55527;SDS011;52818;43.308;21.916;2022-09-27T22:44:59;7.20;;;2.40;;
55527;SDS011;52818;43.308;21.916;2022-09-27T22:47:00;5.10;;;2.60;;
55527;SDS011;52818;43.308;21.916;2022-09-27T22:49:00;4.70;;;2.20;;
55527;SDS011;52818;43.308;21.916;2022-09-27T22:51:00;5.60;;;2.40;;
55527;SDS011;52818;43.308;21.916;2022-09-27T22:53:00;4.60;;;;;
55527;SDS011;52818;43.308;21.916;2022-09-27T22:55:00;6.80;;;2.80;;
55527;SDS011;52818;43.308;21.916;2022-09-27T22:57:00;5.30;;;2.50;;
55527;SDS011;52818;43.308;21.916;2022-09-27T22:59:00;5.60;;;;;
55527;SDS011;52818;43.308;21.916;2022-09-27T23:01:05;3.40;;;2.40;;
55527;SDS011;52818;43.308;21.916;2022-09-27T23:03:00;9.50;;;4.20;;
55527;SDS011;52818;43.308;21.916;2022-09-27T23:05:00;10.20;;;5.30;;
55527;SDS011;52818;43.308;21.916;2022-09-27T23:07:00;6.10;;;3.70;;
55527;SDS011;52818;43.308;21.916;2022-09-27T23:09:01;5.80;;;3.00;;
55527;SDS011;52818;43.308;21.916;2022-09-27T23:11:01;6.60;;;2.80;;
55527;SDS011;52818;43.308;21.916;2022-09-27T23:13:01;6.50;;;2.90;;
55527;SDS011;52818;43.308;21.916;2022-09-27T23:15:01;4.50;;;2.20;;
55527;SDS011;52818;43.308;21.916;2022-09-27T23:17:01;3.80;;;2.10;;
55527;SDS011;52818;43.308;21.916;2022-09-27T23:19:02;4.70;;;2.00;;
55527;SDS011;52818;43.308;21.916;2022-09-27T23:21:02;4.20;;;1.90;;
55527;SDS011;52818;43.308;21.916;2022-09-27T23:23:01;5.40;;;2.10;;
55527;SDS011;52818;43.308;21.916;2022-09-27T23:25:01;5.10;;;;;
55527;SDS011;52818;43.308;21.916;2022-09-27T23:27:01;3.60;;;1.80;;
55527;SDS011;52818;43.308;21.916;2022-09-27T23:29:02;3.90;;;1.90;;
55527;SDS011;52818;43.308;21.916;2022-09-27T23:31:02;4.90;;;;;
55527;SDS011;52818;43.308;21.916;2022-09-27T23:33:02;3.70;;;;;
55527;SDS011;52818;43.308;21.916;2022-09-27T23:35:02;3.60;;;;;
55527;SDS011;52818;43.308;21.916;2022-09-27T23:37:02;9.60;;;2.40;;
55527;SDS011;52818;43.308;21.916;2022-09-27T23:39:02;4.00;;;1.90;;
55527;SDS011;52818;43.308;21.916;2022-09-27T23:41:02;3.80;;;2.00;;
55527;SDS011;52818;43.308;21.916;2022-09-27T23:43:02;4.30;;;;;
55527;SDS011;52818;43.308;21.916;2022-09-27T23:45:02;4.60;;;1.90;;
55527;SDS011;52818;43.308;21.916;2022-09-27T23:47:02;4.90;;;;;
55527;SDS011;52818;43.308;21.916;2022-09-27T23:49:02;4.60;;;2.10;;
55527;SDS011;52818;43.308;21.916;2022-09-27T23:51:03;4.80;;;2.00;;
55527;SDS011;52818;43.308;21.916;2022-09-27T23:53:33;5.10;;;2.10;;
55527;SDS011;52818;43.308;21.916;2022-09-27T23:55:33;5.60;;;;;
55527;SDS011;52818;43.308;21.916;2022-09-27T23:57:33;;;;2.50;;
55527;SDS011;52818;43.308;21.916;2022-09-27T23:59:33;6.90;;;2.20;;
